createdAt,value
2017-08-29T00:00:52.235Z,0
2017-08-29T00:01:51.545Z,0
2017-08-29T00:02:51.536Z,0
2017-08-29T00:03:52.365Z,0
2017-08-29T00:04:51.834Z,0
2017-08-29T00:05:51.178Z,0
2017-08-29T00:06:52.456Z,0
2017-08-29T00:07:51.159Z,0
2017-08-29T00:08:51.794Z,0
2017-08-29T00:09:51.458Z,0
2017-08-29T00:10:51.774Z,0
2017-08-29T00:11:51.762Z,0
2017-08-29T00:12:52.392Z,0
2017-08-29T00:13:52.085Z,0
2017-08-29T00:14:51.725Z,0
2017-08-29T00:15:51.713Z,0
2017-08-29T00:16:52.020Z,0
2017-08-29T00:17:52.018Z,0
2017-08-29T00:18:52.006Z,0
2017-08-29T00:19:51.679Z,0
2017-08-29T00:20:51.663Z,0
2017-08-29T00:21:52.333Z,0
2017-08-29T00:22:51.645Z,0
2017-08-29T00:23:51.978Z,0
2017-08-29T00:24:50.977Z,0
2017-08-29T00:25:50.968Z,0
2017-08-29T00:26:51.926Z,0
2017-08-29T00:27:51.585Z,0
2017-08-29T00:28:51.263Z,0
2017-08-29T00:29:51.247Z,0
2017-08-29T00:30:51.236Z,0
2017-08-29T00:31:51.226Z,0
2017-08-29T00:32:51.217Z,0
2017-08-29T00:33:51.841Z,0
2017-08-29T00:34:51.523Z,0
2017-08-29T00:35:51.864Z,0
2017-08-29T00:36:51.816Z,0
2017-08-29T00:37:51.810Z,0
2017-08-29T00:38:51.795Z,0
2017-08-29T00:39:51.456Z,0
2017-08-29T00:40:51.451Z,0
2017-08-29T00:41:51.758Z,0
2017-08-29T00:42:51.427Z,0
2017-08-29T00:43:51.102Z,0
2017-08-29T00:44:51.731Z,0
2017-08-29T00:45:51.714Z,0
2017-08-29T00:46:51.076Z,0
2017-08-29T00:47:51.373Z,0
2017-08-29T00:48:51.698Z,0
2017-08-29T00:49:51.729Z,0
2017-08-29T00:50:51.703Z,0
2017-08-29T00:51:51.362Z,0
2017-08-29T00:52:51.680Z,0
2017-08-29T00:53:51.638Z,0
2017-08-29T00:54:51.298Z,0
2017-08-29T00:55:50.969Z,0
2017-08-29T00:56:51.278Z,0
2017-08-29T00:57:51.319Z,0
2017-08-29T00:58:51.265Z,0
2017-08-29T00:59:51.247Z,0
2017-08-29T01:00:50.592Z,0
2017-08-29T01:01:51.560Z,0
2017-08-29T01:02:51.554Z,0
2017-08-29T01:03:50.881Z,0
2017-08-29T01:04:51.201Z,0
2017-08-29T01:05:51.183Z,0
2017-08-29T01:06:51.811Z,0
2017-08-29T01:07:51.169Z,0
2017-08-29T01:08:50.516Z,0
2017-08-29T01:09:51.153Z,0
2017-08-29T01:10:50.812Z,0
2017-08-29T01:11:51.457Z,0
2017-08-29T01:12:51.436Z,0
2017-08-29T01:13:51.097Z,0
2017-08-29T01:14:51.094Z,0
2017-08-29T01:15:51.075Z,0
2017-08-29T01:16:51.722Z,0
2017-08-29T01:17:51.432Z,0
2017-08-29T01:18:50.725Z,0
2017-08-29T01:19:51.038Z,0
2017-08-29T01:20:51.020Z,0
2017-08-29T01:21:50.691Z,0
2017-08-29T01:22:51.324Z,0
2017-08-29T01:23:50.668Z,0
2017-08-29T01:24:50.981Z,0
2017-08-29T01:25:50.969Z,0
2017-08-29T01:26:51.282Z,0
2017-08-29T01:27:50.624Z,0
2017-08-29T01:28:50.940Z,0
2017-08-29T01:29:50.926Z,0
2017-08-29T01:30:50.622Z,0
2017-08-29T01:31:50.905Z,0
2017-08-29T01:32:50.949Z,0
2017-08-29T01:33:50.884Z,0
2017-08-29T01:34:50.873Z,0
2017-08-29T01:35:51.180Z,0
2017-08-29T01:36:50.532Z,0
2017-08-29T01:37:51.490Z,0
2017-08-29T01:38:50.509Z,0
2017-08-29T01:39:50.819Z,0
2017-08-29T01:40:50.486Z,0
2017-08-29T01:41:50.802Z,0
2017-08-29T01:42:50.462Z,0
2017-08-29T01:43:51.107Z,0
2017-08-29T01:44:51.088Z,0
2017-08-29T01:45:50.109Z,0
2017-08-29T01:46:51.063Z,0
2017-08-29T01:47:50.408Z,0
2017-08-29T01:48:51.050Z,0
2017-08-29T01:49:50.070Z,0
2017-08-29T01:50:50.704Z,0
2017-08-29T01:51:50.693Z,0
2017-08-29T01:52:51.030Z,0
2017-08-29T01:53:50.989Z,0
2017-08-29T01:54:50.673Z,0
2017-08-29T01:55:50.972Z,0
2017-08-29T01:56:50.640Z,0
2017-08-29T01:57:51.263Z,0
2017-08-29T01:58:50.944Z,0
2017-08-29T01:59:50.286Z,0
2017-08-29T02:00:50.591Z,0
2017-08-29T02:01:50.262Z,0
2017-08-29T02:02:50.581Z,0
2017-08-29T02:03:50.443Z,0
2017-08-29T02:04:49.913Z,0
2017-08-29T02:05:50.551Z,0
2017-08-29T02:06:50.534Z,0
2017-08-29T02:07:51.166Z,0
2017-08-29T02:08:50.188Z,0
2017-08-29T02:09:50.816Z,0
2017-08-29T02:10:50.185Z,0
2017-08-29T02:11:51.123Z,0
2017-08-29T02:12:50.788Z,0
2017-08-29T02:13:50.134Z,0
2017-08-29T02:14:51.086Z,0
2017-08-29T02:15:50.427Z,0
2017-08-29T02:16:51.060Z,0
2017-08-29T02:17:50.097Z,0
2017-08-29T02:18:50.729Z,0
2017-08-29T02:19:50.419Z,0
2017-08-29T02:20:50.701Z,0
2017-08-29T02:21:50.364Z,0
2017-08-29T02:22:50.353Z,0
2017-08-29T02:23:50.669Z,0
2017-08-29T02:24:50.332Z,0
2017-08-29T02:25:50.647Z,0
2017-08-29T02:26:50.639Z,0
2017-08-29T02:27:50.663Z,0
2017-08-29T02:28:50.628Z,0
2017-08-29T02:29:49.967Z,0
2017-08-29T02:30:49.982Z,0
2017-08-29T02:31:50.007Z,0
2017-08-29T02:32:49.940Z,0
2017-08-29T02:33:50.565Z,0
2017-08-29T02:34:50.562Z,0
2017-08-29T02:35:50.538Z,0
2017-08-29T02:36:50.533Z,0
2017-08-29T02:37:50.845Z,0
2017-08-29T02:38:50.191Z,0
2017-08-29T02:39:50.179Z,0
2017-08-29T02:40:50.162Z,0
2017-08-29T02:41:50.152Z,0
2017-08-29T02:42:50.146Z,0
2017-08-29T02:43:50.463Z,0
2017-08-29T02:44:49.805Z,0
2017-08-29T02:45:50.112Z,0
2017-08-29T02:46:50.423Z,0
2017-08-29T02:47:50.411Z,0
2017-08-29T02:48:50.410Z,0
2017-08-29T02:49:49.749Z,0
2017-08-29T02:50:50.694Z,0
2017-08-29T02:51:50.752Z,0
2017-08-29T02:52:50.039Z,0
2017-08-29T02:53:50.021Z,0
2017-08-29T02:54:50.027Z,0
2017-08-29T02:55:49.676Z,0
2017-08-29T02:56:50.002Z,0
2017-08-29T02:57:50.304Z,0
2017-08-29T02:58:50.320Z,0
2017-08-29T02:59:49.316Z,0
2017-08-29T03:00:49.947Z,0
2017-08-29T03:01:49.938Z,0
2017-08-29T03:02:49.933Z,0
2017-08-29T03:03:49.597Z,0
2017-08-29T03:04:50.220Z,0
2017-08-29T03:05:49.244Z,0
2017-08-29T03:06:49.560Z,0
2017-08-29T03:07:49.556Z,0
2017-08-29T03:08:49.891Z,0
2017-08-29T03:09:50.537Z,0
2017-08-29T03:10:49.511Z,0
2017-08-29T03:11:49.524Z,0
2017-08-29T03:12:50.176Z,0
2017-08-29T03:13:49.480Z,0
2017-08-29T03:14:50.114Z,0
2017-08-29T03:15:49.787Z,0
2017-08-29T03:16:49.771Z,0
2017-08-29T03:17:49.453Z,0
2017-08-29T03:18:49.791Z,0
2017-08-29T03:19:50.084Z,0
2017-08-29T03:20:49.409Z,0
2017-08-29T03:21:50.043Z,0
2017-08-29T03:22:49.711Z,0
2017-08-29T03:23:50.010Z,0
2017-08-29T03:24:49.366Z,0
2017-08-29T03:25:49.669Z,0
2017-08-29T03:26:49.021Z,0
2017-08-29T03:27:50.295Z,0
2017-08-29T03:28:49.323Z,0
2017-08-29T03:29:49.693Z,0
2017-08-29T03:30:49.633Z,0
2017-08-29T03:31:49.610Z,0
2017-08-29T03:32:49.604Z,0
2017-08-29T03:33:49.588Z,0
2017-08-29T03:34:49.578Z,0
2017-08-29T03:35:49.248Z,0
2017-08-29T03:36:49.867Z,0
2017-08-29T03:37:49.863Z,0
2017-08-29T03:38:49.860Z,0
2017-08-29T03:39:49.202Z,0
2017-08-29T03:40:49.561Z,0
2017-08-29T03:41:49.822Z,0
2017-08-29T03:42:49.489Z,0
2017-08-29T03:43:49.471Z,0
2017-08-29T03:44:50.108Z,0
2017-08-29T03:45:49.450Z,0
2017-08-29T03:46:49.447Z,0
2017-08-29T03:47:49.114Z,0
2017-08-29T03:48:49.104Z,0
2017-08-29T03:49:49.730Z,0
2017-08-29T03:50:49.417Z,0
2017-08-29T03:51:49.386Z,0
2017-08-29T03:52:50.021Z,0
2017-08-29T03:53:50.025Z,0
2017-08-29T03:54:49.360Z,0
2017-08-29T03:55:49.373Z,0
2017-08-29T03:56:49.352Z,0
2017-08-29T03:57:49.008Z,0
2017-08-29T03:58:49.962Z,0
2017-08-29T03:59:49.637Z,0
2017-08-29T04:00:48.987Z,0
2017-08-29T04:01:49.600Z,0
2017-08-29T04:02:49.275Z,0
2017-08-29T04:03:49.664Z,0
2017-08-29T04:04:48.924Z,0
2017-08-29T04:05:48.914Z,0
2017-08-29T04:06:49.896Z,0
2017-08-29T04:07:48.892Z,0
2017-08-29T04:08:48.907Z,0
2017-08-29T04:09:49.508Z,0
2017-08-29T04:10:49.496Z,0
2017-08-29T04:11:48.524Z,0
2017-08-29T04:12:48.881Z,0
2017-08-29T04:13:49.464Z,0
2017-08-29T04:14:49.138Z,0
2017-08-29T04:15:49.127Z,0
2017-08-29T04:16:49.114Z,0
2017-08-29T04:17:49.739Z,0
2017-08-29T04:18:49.408Z,0
2017-08-29T04:19:49.084Z,0
2017-08-29T04:20:49.394Z,0
2017-08-29T04:21:49.406Z,0
2017-08-29T04:22:48.396Z,0
2017-08-29T04:23:49.042Z,0
2017-08-29T04:24:49.018Z,0
2017-08-29T04:25:49.415Z,0
2017-08-29T04:26:49.007Z,0
2017-08-29T04:27:48.983Z,0
2017-08-29T04:28:49.298Z,0
2017-08-29T04:29:48.968Z,0
2017-08-29T04:30:48.953Z,0
2017-08-29T04:31:48.624Z,0
2017-08-29T04:32:49.257Z,0
2017-08-29T04:33:48.598Z,0
2017-08-29T04:34:48.915Z,0
2017-08-29T04:35:48.594Z,0
2017-08-29T04:36:48.892Z,0
2017-08-29T04:37:48.881Z,0
2017-08-29T04:38:48.870Z,0
2017-08-29T04:39:48.547Z,5
2017-08-29T04:40:48.521Z,5
2017-08-29T04:41:48.513Z,5
2017-08-29T04:42:48.177Z,5
2017-08-29T04:43:49.447Z,5
2017-08-29T04:44:48.476Z,5
2017-08-29T04:45:48.789Z,5
2017-08-29T04:46:49.097Z,5
2017-08-29T04:47:48.758Z,5
2017-08-29T04:48:48.748Z,5
2017-08-29T04:49:48.741Z,5
2017-08-29T04:50:49.368Z,10
2017-08-29T04:51:48.715Z,10
2017-08-29T04:52:48.710Z,10
2017-08-29T04:53:48.378Z,10
2017-08-29T04:54:48.683Z,10
2017-08-29T04:55:48.350Z,10
2017-08-29T04:56:48.343Z,10
2017-08-29T04:57:48.650Z,10
2017-08-29T04:58:48.965Z,15
2017-08-29T04:59:48.302Z,15
2017-08-29T05:00:48.614Z,15
2017-08-29T05:01:48.920Z,15
2017-08-29T05:02:48.635Z,15
2017-08-29T05:03:48.586Z,15
2017-08-29T05:04:49.213Z,15
2017-08-29T05:05:49.205Z,15
2017-08-29T05:06:48.547Z,20
2017-08-29T05:07:48.537Z,20
2017-08-29T05:08:48.529Z,20
2017-08-29T05:09:49.162Z,20
2017-08-29T05:10:48.824Z,20
2017-08-29T05:11:48.174Z,20
2017-08-29T05:12:48.798Z,20
2017-08-29T05:13:48.467Z,25
2017-08-29T05:14:49.107Z,25
2017-08-29T05:15:48.768Z,25
2017-08-29T05:16:47.798Z,25
2017-08-29T05:17:48.425Z,25
2017-08-29T05:18:48.732Z,25
2017-08-29T05:19:49.042Z,25
2017-08-29T05:20:48.070Z,30
2017-08-29T05:21:48.076Z,30
2017-08-29T05:22:48.056Z,30
2017-08-29T05:23:48.678Z,30
2017-08-29T05:24:48.031Z,30
2017-08-29T05:25:48.026Z,30
2017-08-29T05:26:48.640Z,30
2017-08-29T05:27:48.314Z,30
2017-08-29T05:28:47.990Z,35
2017-08-29T05:29:47.651Z,35
2017-08-29T05:30:48.601Z,35
2017-08-29T05:31:47.625Z,35
2017-08-29T05:32:48.603Z,35
2017-08-29T05:33:47.927Z,35
2017-08-29T05:34:48.237Z,35
2017-08-29T05:35:47.897Z,40
2017-08-29T05:36:48.539Z,40
2017-08-29T05:37:48.531Z,40
2017-08-29T05:38:48.188Z,40
2017-08-29T05:39:48.180Z,40
2017-08-29T05:40:47.843Z,40
2017-08-29T05:41:48.157Z,40
2017-08-29T05:42:47.818Z,45
2017-08-29T05:43:48.448Z,45
2017-08-29T05:44:48.123Z,45
2017-08-29T05:45:48.430Z,45
2017-08-29T05:46:47.776Z,45
2017-08-29T05:47:48.097Z,45
2017-08-29T05:48:48.081Z,45
2017-08-29T05:49:48.391Z,45
2017-08-29T05:50:48.696Z,45
2017-08-29T05:51:48.373Z,45
2017-08-29T05:52:48.034Z,50
2017-08-29T05:53:48.678Z,50
2017-08-29T05:54:48.012Z,50
2017-08-29T05:55:47.684Z,50
2017-08-29T05:56:47.668Z,50
2017-08-29T05:57:48.628Z,50
2017-08-29T05:58:47.650Z,50
2017-08-29T05:59:47.635Z,50
2017-08-29T06:00:47.952Z,55
2017-08-29T06:01:48.264Z,55
2017-08-29T06:02:48.247Z,55
2017-08-29T06:03:48.264Z,55
2017-08-29T06:04:48.449Z,55
2017-08-29T06:05:48.225Z,60
2017-08-29T06:06:48.537Z,60
2017-08-29T06:07:47.877Z,60
2017-08-29T06:08:47.868Z,60
2017-08-29T06:09:47.858Z,60
2017-08-29T06:10:48.484Z,60
2017-08-29T06:11:47.831Z,65
2017-08-29T06:12:48.144Z,65
2017-08-29T06:13:48.126Z,65
2017-08-29T06:14:47.802Z,65
2017-08-29T06:15:48.108Z,65
2017-08-29T06:16:48.095Z,65
2017-08-29T06:17:47.767Z,70
2017-08-29T06:18:47.433Z,70
2017-08-29T06:19:48.403Z,70
2017-08-29T06:20:47.738Z,70
2017-08-29T06:21:47.415Z,70
2017-08-29T06:22:47.719Z,70
2017-08-29T06:23:48.078Z,70
2017-08-29T06:24:47.051Z,75
2017-08-29T06:25:48.020Z,75
2017-08-29T06:26:48.368Z,75
2017-08-29T06:27:47.667Z,75
2017-08-29T06:28:47.654Z,75
2017-08-29T06:29:47.974Z,75
2017-08-29T06:30:48.270Z,75
2017-08-29T06:31:47.949Z,75
2017-08-29T06:32:48.258Z,75
2017-08-29T06:33:47.286Z,75
2017-08-29T06:34:47.917Z,80
2017-08-29T06:35:47.913Z,80
2017-08-29T06:36:47.251Z,80
2017-08-29T06:37:47.242Z,80
2017-08-29T06:38:47.554Z,80
2017-08-29T06:39:47.266Z,80
2017-08-29T06:40:47.215Z,80
2017-08-29T06:41:47.849Z,80
2017-08-29T06:42:47.204Z,80
2017-08-29T06:43:47.826Z,80
2017-08-29T06:44:47.495Z,80
2017-08-29T06:45:47.810Z,80
2017-08-29T06:46:46.832Z,80
2017-08-29T06:47:47.149Z,80
2017-08-29T06:48:47.795Z,80
2017-08-29T06:49:47.133Z,80
2017-08-29T06:50:47.441Z,80
2017-08-29T06:51:47.451Z,80
2017-08-29T06:52:47.421Z,85
2017-08-29T06:53:47.806Z,85
2017-08-29T06:54:47.087Z,85
2017-08-29T06:55:47.076Z,85
2017-08-29T06:56:47.060Z,85
2017-08-29T06:57:47.051Z,85
2017-08-29T06:58:47.692Z,85
2017-08-29T06:59:47.030Z,85
2017-08-29T07:00:47.347Z,85
2017-08-29T07:01:47.657Z,85
2017-08-29T07:02:47.007Z,85
2017-08-29T07:03:46.993Z,85
2017-08-29T07:04:47.956Z,85
2017-08-29T07:05:46.975Z,90
2017-08-29T07:06:46.968Z,90
2017-08-29T07:07:47.282Z,90
2017-08-29T07:08:47.593Z,90
2017-08-29T07:09:46.618Z,90
2017-08-29T07:10:47.413Z,90
2017-08-29T07:11:47.256Z,90
2017-08-29T07:12:47.573Z,90
2017-08-29T07:13:47.228Z,90
2017-08-29T07:14:47.575Z,90
2017-08-29T07:15:47.858Z,90
2017-08-29T07:16:46.880Z,90
2017-08-29T07:17:47.832Z,95
2017-08-29T07:18:47.503Z,95
2017-08-29T07:19:47.494Z,95
2017-08-29T07:20:47.486Z,95
2017-08-29T07:21:47.157Z,95
2017-08-29T07:22:47.460Z,95
2017-08-29T07:23:46.813Z,95
2017-08-29T07:24:47.126Z,100
2017-08-29T07:25:46.806Z,100
2017-08-29T07:26:46.815Z,100
2017-08-29T07:27:47.101Z,100
2017-08-29T07:28:46.767Z,100
2017-08-29T07:29:46.765Z,100
2017-08-29T07:30:47.391Z,100
2017-08-29T07:31:47.382Z,100
2017-08-29T07:32:47.076Z,100
2017-08-29T07:33:47.046Z,100
2017-08-29T07:34:47.035Z,105
2017-08-29T07:35:47.038Z,105
2017-08-29T07:36:47.347Z,105
2017-08-29T07:37:47.020Z,105
2017-08-29T07:38:46.690Z,105
2017-08-29T07:39:46.722Z,105
2017-08-29T07:40:47.308Z,105
2017-08-29T07:41:47.300Z,105
2017-08-29T07:42:47.294Z,105
2017-08-29T07:43:46.966Z,105
2017-08-29T07:44:46.964Z,105
2017-08-29T07:45:47.271Z,105
2017-08-29T07:46:47.259Z,105
2017-08-29T07:47:46.954Z,105
2017-08-29T07:48:47.254Z,110
2017-08-29T07:49:46.911Z,110
2017-08-29T07:50:46.638Z,110
2017-08-29T07:51:47.221Z,110
2017-08-29T07:52:47.547Z,110
2017-08-29T07:53:47.206Z,110
2017-08-29T07:54:46.875Z,110
2017-08-29T07:55:47.190Z,110
2017-08-29T07:56:46.903Z,115
2017-08-29T07:57:46.535Z,115
2017-08-29T07:58:46.205Z,115
2017-08-29T07:59:47.480Z,115
2017-08-29T08:00:46.868Z,115
2017-08-29T08:01:46.198Z,120
2017-08-29T08:02:46.524Z,120
2017-08-29T08:03:47.478Z,125
2017-08-29T08:04:46.999Z,125
2017-08-29T08:05:46.467Z,125
2017-08-29T08:06:46.464Z,125
2017-08-29T08:07:47.424Z,125
2017-08-29T08:08:47.412Z,125
2017-08-29T08:09:47.414Z,125
2017-08-29T08:10:46.112Z,130
2017-08-29T08:11:46.749Z,130
2017-08-29T08:12:46.762Z,150
2017-08-29T08:13:47.056Z,330
2017-08-29T08:14:46.726Z,290
2017-08-29T08:15:46.720Z,135
2017-08-29T08:16:47.028Z,150
2017-08-29T08:17:47.350Z,270
2017-08-29T08:18:47.018Z,210
2017-08-29T08:19:46.687Z,175
2017-08-29T08:20:47.008Z,140
2017-08-29T08:21:47.011Z,140
2017-08-29T08:22:46.668Z,180
2017-08-29T08:23:46.671Z,335
2017-08-29T08:24:47.311Z,415
2017-08-29T08:25:46.646Z,405
2017-08-29T08:26:46.322Z,395
2017-08-29T08:27:46.316Z,395
2017-08-29T08:28:46.315Z,380
2017-08-29T08:29:46.395Z,355
2017-08-29T08:30:46.937Z,375
2017-08-29T08:31:46.938Z,385
2017-08-29T08:32:46.282Z,300
2017-08-29T08:33:46.765Z,230
2017-08-29T08:34:46.594Z,155
2017-08-29T08:35:46.266Z,160
2017-08-29T08:36:46.906Z,145
2017-08-29T08:37:46.896Z,145
2017-08-29T08:38:46.283Z,155
2017-08-29T08:39:46.617Z,150
2017-08-29T08:40:47.194Z,145
2017-08-29T08:41:47.194Z,145
2017-08-29T08:42:46.543Z,145
2017-08-29T08:43:46.859Z,145
2017-08-29T08:44:46.209Z,150
2017-08-29T08:45:46.527Z,150
2017-08-29T08:46:46.843Z,150
2017-08-29T08:47:46.511Z,145
2017-08-29T08:48:46.193Z,145
2017-08-29T08:49:46.540Z,145
2017-08-29T08:50:46.839Z,155
2017-08-29T08:51:46.829Z,165
2017-08-29T08:52:46.489Z,165
2017-08-29T08:53:46.485Z,145
2017-08-29T08:54:46.529Z,145
2017-08-29T08:55:46.474Z,150
2017-08-29T08:56:46.138Z,150
2017-08-29T08:57:46.449Z,150
2017-08-29T08:58:46.123Z,155
2017-08-29T08:59:46.447Z,155
2017-08-29T09:00:46.432Z,155
2017-08-29T09:01:46.427Z,155
2017-08-29T09:02:46.112Z,155
2017-08-29T09:03:46.750Z,160
2017-08-29T09:04:46.154Z,160
2017-08-29T09:05:46.728Z,165
2017-08-29T09:06:46.731Z,165
2017-08-29T09:07:46.405Z,165
2017-08-29T09:08:46.393Z,170
2017-08-29T09:09:46.706Z,170
2017-08-29T09:10:46.062Z,170
2017-08-29T09:11:46.688Z,175
2017-08-29T09:12:46.369Z,180
2017-08-29T09:13:46.043Z,175
2017-08-29T09:14:46.358Z,180
2017-08-29T09:15:47.012Z,180
2017-08-29T09:16:46.349Z,205
2017-08-29T09:17:46.022Z,230
2017-08-29T09:18:46.336Z,265
2017-08-29T09:19:46.652Z,250
2017-08-29T09:20:46.648Z,220
2017-08-29T09:21:46.672Z,210
2017-08-29T09:22:45.993Z,210
2017-08-29T09:23:46.631Z,190
2017-08-29T09:24:45.998Z,260
2017-08-29T09:25:46.958Z,255
2017-08-29T09:26:46.296Z,185
2017-08-29T09:27:46.290Z,185
2017-08-29T09:28:45.958Z,205
2017-08-29T09:29:46.279Z,220
2017-08-29T09:30:46.280Z,190
2017-08-29T09:31:46.266Z,190
2017-08-29T09:32:46.266Z,185
2017-08-29T09:33:46.250Z,185
2017-08-29T09:34:46.570Z,185
2017-08-29T09:35:46.617Z,185
2017-08-29T09:36:46.245Z,185
2017-08-29T09:37:46.229Z,185
2017-08-29T09:38:46.553Z,185
2017-08-29T09:39:46.546Z,190
2017-08-29T09:40:46.537Z,190
2017-08-29T09:41:46.868Z,200
2017-08-29T09:42:45.892Z,195
2017-08-29T09:43:46.858Z,190
2017-08-29T09:44:45.554Z,195
2017-08-29T09:45:45.875Z,195
2017-08-29T09:46:45.866Z,195
2017-08-29T09:47:46.503Z,200
2017-08-29T09:48:46.513Z,195
2017-08-29T09:49:45.852Z,200
2017-08-29T09:50:46.205Z,200
2017-08-29T09:51:46.159Z,200
2017-08-29T09:52:46.167Z,200
2017-08-29T09:53:46.154Z,200
2017-08-29T09:54:45.852Z,200
2017-08-29T09:55:46.142Z,195
2017-08-29T09:56:45.849Z,200
2017-08-29T09:57:46.136Z,195
2017-08-29T09:58:46.125Z,205
2017-08-29T09:59:45.803Z,200
2017-08-29T10:00:46.161Z,200
2017-08-29T10:01:45.469Z,200
2017-08-29T10:02:46.106Z,195
2017-08-29T10:03:46.438Z,200
2017-08-29T10:04:45.657Z,200
2017-08-29T10:05:46.141Z,205
2017-08-29T10:06:46.095Z,205
2017-08-29T10:07:46.407Z,205
2017-08-29T10:08:46.402Z,205
2017-08-29T10:09:46.071Z,210
2017-08-29T10:10:46.077Z,210
2017-08-29T10:11:45.421Z,210
2017-08-29T10:12:45.761Z,215
2017-08-29T10:13:46.065Z,215
2017-08-29T10:14:46.369Z,215
2017-08-29T10:15:45.725Z,225
2017-08-29T10:16:45.738Z,220
2017-08-29T10:17:46.678Z,225
2017-08-29T10:18:46.354Z,225
2017-08-29T10:19:46.023Z,230
2017-08-29T10:20:45.702Z,235
2017-08-29T10:21:46.666Z,230
2017-08-29T10:22:45.688Z,250
2017-08-29T10:23:46.332Z,355
2017-08-29T10:24:45.683Z,410
2017-08-29T10:25:45.994Z,275
2017-08-29T10:26:46.001Z,230
2017-08-29T10:27:46.305Z,225
2017-08-29T10:28:45.997Z,240
2017-08-29T10:29:45.988Z,240
2017-08-29T10:30:45.651Z,245
2017-08-29T10:31:45.975Z,245
2017-08-29T10:32:46.294Z,250
2017-08-29T10:33:46.610Z,255
2017-08-29T10:34:45.329Z,260
2017-08-29T10:35:45.629Z,265
2017-08-29T10:36:45.956Z,275
2017-08-29T10:37:46.280Z,300
2017-08-29T10:38:45.947Z,285
2017-08-29T10:39:46.266Z,270
2017-08-29T10:40:46.273Z,285
2017-08-29T10:41:45.921Z,275
2017-08-29T10:42:45.926Z,280
2017-08-29T10:43:46.246Z,285
2017-08-29T10:44:45.591Z,310
2017-08-29T10:45:45.909Z,345
2017-08-29T10:46:45.587Z,320
2017-08-29T10:47:45.916Z,300
2017-08-29T10:48:45.587Z,305
2017-08-29T10:49:45.578Z,340
2017-08-29T10:50:45.572Z,325
2017-08-29T10:51:46.530Z,325
2017-08-29T10:52:45.888Z,340
2017-08-29T10:53:45.252Z,365
2017-08-29T10:54:45.559Z,360
2017-08-29T10:55:46.240Z,430
2017-08-29T10:56:45.863Z,545
2017-08-29T10:57:46.194Z,905
2017-08-29T10:58:46.183Z,720
2017-08-29T10:59:45.867Z,530
2017-08-29T11:00:46.182Z,490
2017-08-29T11:01:45.548Z,625
2017-08-29T11:02:45.218Z,485
2017-08-29T11:03:45.536Z,475
2017-08-29T11:04:45.847Z,505
2017-08-29T11:05:45.896Z,485
2017-08-29T11:06:45.836Z,830
2017-08-29T11:07:45.517Z,700
2017-08-29T11:08:46.161Z,795
2017-08-29T11:09:45.507Z,1075
2017-08-29T11:10:46.159Z,1170
2017-08-29T11:11:46.464Z,1115
2017-08-29T11:12:45.824Z,790
2017-08-29T11:13:45.818Z,785
2017-08-29T11:14:45.498Z,1235
2017-08-29T11:15:46.140Z,590
2017-08-29T11:16:45.867Z,565
2017-08-29T11:17:45.822Z,625
2017-08-29T11:18:46.138Z,850
2017-08-29T11:19:46.149Z,815
2017-08-29T11:20:46.146Z,540
2017-08-29T11:21:45.822Z,550
2017-08-29T11:22:45.177Z,1210
2017-08-29T11:23:46.135Z,1355
2017-08-29T11:24:45.821Z,1400
2017-08-29T11:25:45.820Z,1415
2017-08-29T11:26:46.181Z,1480
2017-08-29T11:27:45.498Z,1525
2017-08-29T11:28:45.825Z,1555
2017-08-29T11:29:45.818Z,1630
2017-08-29T11:30:46.146Z,1145
2017-08-29T11:31:45.889Z,1690
2017-08-29T11:32:46.468Z,1300
2017-08-29T11:33:45.513Z,1410
2017-08-29T11:34:46.494Z,1475
2017-08-29T11:35:46.192Z,1620
2017-08-29T11:36:46.164Z,1610
2017-08-29T11:37:45.524Z,1650
2017-08-29T11:38:46.170Z,1700
2017-08-29T11:39:45.528Z,1690
2017-08-29T11:40:45.851Z,1830
2017-08-29T11:41:45.686Z,1875
2017-08-29T11:42:46.189Z,1895
2017-08-29T11:43:46.202Z,1890
2017-08-29T11:44:46.310Z,1870
2017-08-29T11:45:45.930Z,1740
2017-08-29T11:46:46.270Z,1910
2017-08-29T11:47:45.895Z,1795
2017-08-29T11:48:45.902Z,1850
2017-08-29T11:49:45.255Z,1820
2017-08-29T11:50:45.904Z,1925
2017-08-29T11:51:46.233Z,1815
2017-08-29T11:52:45.909Z,1740
2017-08-29T11:53:45.621Z,1825
2017-08-29T11:54:45.966Z,1845
2017-08-29T11:55:45.948Z,1875
2017-08-29T11:56:45.930Z,1830
2017-08-29T11:57:45.942Z,1885
2017-08-29T11:58:46.597Z,1790
2017-08-29T11:59:45.947Z,1785
2017-08-29T12:00:45.964Z,1870
2017-08-29T12:01:45.967Z,1895
2017-08-29T12:02:45.645Z,1910
2017-08-29T12:03:46.291Z,1935
2017-08-29T12:04:46.184Z,1885
2017-08-29T12:05:45.669Z,1855
2017-08-29T12:06:46.314Z,1920
2017-08-29T12:07:46.002Z,1965
2017-08-29T12:08:46.011Z,2025
2017-08-29T12:09:46.331Z,2030
2017-08-29T12:10:45.753Z,2000
2017-08-29T12:11:46.016Z,1970
2017-08-29T12:12:46.024Z,1915
2017-08-29T12:13:46.356Z,1770
2017-08-29T12:14:46.038Z,1735
2017-08-29T12:15:46.375Z,1785
2017-08-29T12:16:46.376Z,1825
2017-08-29T12:17:46.380Z,1830
2017-08-29T12:18:46.388Z,1750
2017-08-29T12:19:45.747Z,1815
2017-08-29T12:20:46.725Z,1800
2017-08-29T12:21:46.420Z,1795
2017-08-29T12:22:46.092Z,1885
2017-08-29T12:23:46.418Z,1915
2017-08-29T12:24:46.425Z,1895
2017-08-29T12:25:46.498Z,1900
2017-08-29T12:26:46.445Z,1840
2017-08-29T12:27:45.805Z,1880
2017-08-29T12:28:45.812Z,1855
2017-08-29T12:29:46.141Z,1790
2017-08-29T12:30:45.822Z,1795
2017-08-29T12:31:46.467Z,1855
2017-08-29T12:32:46.196Z,1865
2017-08-29T12:33:46.161Z,1830
2017-08-29T12:34:46.168Z,1800
2017-08-29T12:35:45.856Z,1810
2017-08-29T12:36:46.825Z,1895
2017-08-29T12:37:46.199Z,1905
2017-08-29T12:38:45.878Z,1925
2017-08-29T12:39:46.529Z,1885
2017-08-29T12:40:46.215Z,1655
2017-08-29T12:41:46.863Z,1670
2017-08-29T12:42:46.545Z,1630
2017-08-29T12:43:46.236Z,1605
2017-08-29T12:44:45.601Z,1625
2017-08-29T12:45:45.926Z,1440
2017-08-29T12:46:46.613Z,1745
2017-08-29T12:47:46.257Z,1820
2017-08-29T12:48:46.278Z,1865
2017-08-29T12:49:46.319Z,1840
2017-08-29T12:50:46.636Z,1870
2017-08-29T12:51:46.601Z,1890
2017-08-29T12:52:45.972Z,1800
2017-08-29T12:53:45.977Z,1790
2017-08-29T12:54:46.691Z,1755
2017-08-29T12:55:46.314Z,1745
2017-08-29T12:56:46.635Z,1745
2017-08-29T12:57:46.066Z,1710
2017-08-29T12:58:46.327Z,1620
2017-08-29T12:59:46.661Z,1350
2017-08-29T13:00:46.728Z,1480
2017-08-29T13:01:46.725Z,1500
2017-08-29T13:02:46.680Z,1510
2017-08-29T13:03:46.372Z,1675
2017-08-29T13:04:46.048Z,1725
2017-08-29T13:05:47.016Z,1710
2017-08-29T13:06:46.108Z,1695
2017-08-29T13:07:46.113Z,1710
2017-08-29T13:08:46.394Z,1570
2017-08-29T13:09:46.402Z,1540
2017-08-29T13:10:46.725Z,1635
2017-08-29T13:11:46.412Z,1715
2017-08-29T13:12:46.513Z,1760
2017-08-29T13:13:46.106Z,1780
2017-08-29T13:14:46.446Z,1780
2017-08-29T13:15:46.439Z,1730
2017-08-29T13:16:46.764Z,1695
2017-08-29T13:17:46.446Z,1680
2017-08-29T13:18:46.131Z,1680
2017-08-29T13:19:46.775Z,1725
2017-08-29T13:20:46.787Z,1700
2017-08-29T13:21:46.472Z,1655
2017-08-29T13:22:46.479Z,1555
2017-08-29T13:23:46.805Z,1460
2017-08-29T13:24:46.168Z,1470
2017-08-29T13:25:46.552Z,1475
2017-08-29T13:26:46.509Z,1430
2017-08-29T13:27:46.504Z,1425
2017-08-29T13:28:47.156Z,1440
2017-08-29T13:29:46.203Z,1410
2017-08-29T13:30:46.208Z,1440
2017-08-29T13:31:46.531Z,1405
2017-08-29T13:32:46.221Z,1400
2017-08-29T13:33:46.547Z,1400
2017-08-29T13:34:46.875Z,1390
2017-08-29T13:35:46.566Z,1395
2017-08-29T13:36:46.563Z,1360
2017-08-29T13:37:46.622Z,1315
2017-08-29T13:38:46.261Z,1380
2017-08-29T13:39:46.994Z,1385
2017-08-29T13:40:46.919Z,1360
2017-08-29T13:41:46.604Z,1345
2017-08-29T13:42:46.918Z,1360
2017-08-29T13:43:46.977Z,1405
2017-08-29T13:44:46.943Z,1400
2017-08-29T13:45:46.618Z,1365
2017-08-29T13:46:46.680Z,1365
2017-08-29T13:47:46.956Z,1360
2017-08-29T13:48:46.961Z,1350
2017-08-29T13:49:47.334Z,1325
2017-08-29T13:50:46.330Z,1325
2017-08-29T13:51:46.653Z,1350
2017-08-29T13:52:46.985Z,1335
2017-08-29T13:53:46.025Z,1295
2017-08-29T13:54:46.347Z,1280
2017-08-29T13:55:46.679Z,1270
2017-08-29T13:56:47.054Z,1270
2017-08-29T13:57:46.692Z,1255
2017-08-29T13:58:46.712Z,1275
2017-08-29T13:59:46.751Z,1275
2017-08-29T14:00:46.711Z,1260
2017-08-29T14:01:47.033Z,1235
2017-08-29T14:02:47.358Z,1225
2017-08-29T14:03:46.731Z,1205
2017-08-29T14:04:46.946Z,1200
2017-08-29T14:05:46.745Z,1230